createdAt,value
2022-09-24T16:26:34.667Z,20.38
2022-09-24T16:29:05.017Z,21.63
2022-09-24T16:31:32.444Z,20.90
2022-09-24T16:33:59.713Z,19.13
2022-09-24T16:36:26.479Z,18.23
2022-09-24T16:38:53.169Z,17.38
2022-09-24T16:41:19.846Z,16.77
2022-09-24T16:43:46.605Z,16.05
2022-09-24T16:46:17.896Z,16.63
2022-09-24T16:48:48.772Z,14.48
2022-09-24T16:51:16.179Z,14.68
2022-09-24T16:53:48.424Z,14.98
2022-09-24T16:56:17.228Z,14.45
2022-09-24T16:58:44.843Z,14.65
2022-09-24T17:01:13.716Z,13.00
2022-09-24T17:03:40.981Z,13.18
2022-09-24T17:06:07.925Z,12.18
2022-09-24T17:08:54.103Z,11.77
2022-09-24T17:11:21.972Z,11.38
2022-09-24T17:13:48.876Z,11.73
2022-09-24T17:16:15.574Z,10.77
2022-09-24T17:18:42.220Z,10.63
2022-09-24T17:21:09.941Z,10.32
2022-09-24T17:23:36.428Z,9.65
2022-09-24T17:26:07.175Z,9.48
2022-09-24T17:28:34.265Z,9.32
2022-09-24T17:31:01.077Z,9.23
2022-09-24T17:33:42.764Z,8.63
2022-09-24T17:36:11.190Z,9.20
2022-09-24T17:38:37.627Z,8.60
2022-09-24T17:41:08.101Z,8.30
2022-09-24T17:46:28.655Z,7.53
2022-09-24T17:48:56.184Z,7.45
2022-09-24T17:51:24.108Z,7.00
2022-09-24T17:53:51.780Z,6.70
2022-09-24T17:56:18.954Z,6.35
2022-09-24T17:58:46.986Z,6.95
2022-09-24T18:01:15.621Z,6.93
2022-09-24T18:03:42.191Z,6.38
2022-09-24T18:06:09.810Z,6.00
2022-09-24T18:08:39.369Z,5.82
2022-09-24T18:11:10.712Z,5.97
2022-09-24T18:13:37.536Z,5.83
2022-09-24T18:16:11.752Z,6.15
2022-09-24T18:18:38.631Z,5.75
2022-09-24T18:21:06.091Z,5.60
2022-09-24T18:23:34.448Z,5.07
2022-09-24T18:26:09.086Z,5.43
2022-09-24T18:28:35.597Z,5.32
2022-09-24T18:31:03.447Z,5.40
2022-09-24T18:33:29.911Z,4.93
2022-09-24T18:35:56.439Z,5.18
2022-09-24T18:38:22.828Z,4.90
2022-09-24T18:40:49.519Z,5.45
2022-09-24T18:43:15.983Z,4.85
2022-09-24T18:45:42.426Z,5.07
2022-09-24T18:48:08.966Z,5.43
2022-09-24T18:50:35.360Z,5.00
2022-09-24T18:53:01.738Z,4.80
2022-09-24T18:55:28.187Z,4.75
2022-09-24T18:57:54.630Z,5.03
2022-09-24T19:00:39.479Z,5.25
2022-09-24T19:03:05.957Z,4.85
2022-09-24T19:05:33.584Z,4.63
2022-09-24T19:08:00.030Z,5.10
2022-09-24T19:10:26.679Z,4.57
2022-09-24T19:12:55.283Z,4.55
2022-09-24T19:15:21.731Z,5.30
2022-09-24T19:17:48.993Z,4.40
2022-09-24T19:20:15.616Z,4.55
2022-09-24T19:22:43.602Z,4.93
2022-09-24T19:25:10.014Z,4.60
2022-09-24T19:27:36.463Z,4.72
2022-09-24T19:30:02.866Z,5.20
2022-09-24T19:32:29.336Z,4.80
2022-09-24T19:34:56.815Z,4.90
2022-09-24T19:37:23.297Z,4.40
2022-09-24T19:39:50.280Z,4.50
2022-09-24T19:42:16.759Z,4.68
2022-09-24T19:44:43.693Z,4.25
2022-09-24T19:47:10.260Z,4.60
2022-09-24T19:49:36.705Z,4.50
2022-09-24T19:52:04.829Z,4.55
2022-09-24T19:54:31.238Z,4.50
2022-09-24T19:56:57.643Z,4.47
2022-09-24T19:59:25.467Z,4.38
2022-09-24T20:01:52.702Z,4.18
2022-09-24T20:04:20.486Z,4.57
2022-09-24T20:06:47.110Z,4.30
2022-09-24T20:09:13.511Z,4.30
2022-09-24T20:11:40.074Z,4.50
2022-09-24T20:14:09.034Z,4.25
2022-09-24T20:16:36.022Z,4.20
2022-09-24T20:19:03.044Z,4.00
2022-09-24T20:21:32.100Z,4.03
2022-09-24T20:23:59.229Z,3.83
2022-09-24T20:26:44.550Z,4.60
2022-09-24T20:29:12.088Z,3.95
2022-09-24T20:31:42.482Z,4.50
2022-09-24T20:34:09.378Z,4.80
2022-09-24T20:36:36.483Z,4.13
2022-09-24T20:39:03.939Z,4.65
2022-09-24T20:41:30.338Z,4.65
2022-09-24T20:43:56.924Z,4.53
2022-09-24T20:46:25.226Z,4.32
2022-09-24T20:48:52.748Z,4.60
2022-09-24T20:51:20.582Z,4.20
2022-09-24T20:53:47.755Z,4.30
2022-09-24T20:56:14.587Z,4.38
2022-09-24T20:58:41.234Z,4.60
2022-09-24T21:01:07.948Z,4.25
2022-09-24T21:03:50.483Z,4.70
2022-09-24T21:06:18.197Z,4.45
2022-09-24T21:08:45.480Z,4.20
2022-09-24T21:11:13.079Z,4.20
2022-09-24T21:13:41.081Z,4.63
2022-09-24T21:16:08.221Z,4.68
2022-09-24T21:18:40.143Z,4.78
2022-09-24T21:21:08.452Z,4.68
2022-09-24T21:23:36.205Z,4.55
2022-09-24T21:26:18.318Z,4.93
2022-09-24T21:28:46.617Z,4.25
2022-09-24T21:31:14.017Z,4.65
2022-09-24T21:33:44.375Z,4.45
2022-09-24T21:36:11.990Z,4.65
2022-09-24T21:38:38.527Z,4.88
2022-09-24T21:41:08.421Z,4.28
2022-09-24T21:43:35.305Z,4.40
2022-09-24T21:46:03.244Z,4.57
2022-09-24T21:48:29.916Z,4.40
2022-09-24T21:51:06.492Z,4.68
2022-09-24T21:53:34.004Z,4.70
2022-09-24T21:56:00.707Z,4.63
2022-09-24T21:58:29.203Z,4.32
2022-09-24T22:00:56.542Z,4.78
2022-09-24T22:03:23.142Z,4.05
2022-09-24T22:05:49.558Z,4.47
2022-09-24T22:08:16.634Z,4.60
2022-09-24T22:10:44.066Z,4.15
2022-09-24T22:13:15.068Z,4.50
2022-09-24T22:15:43.751Z,4.28
2022-09-24T22:18:13.030Z,4.43
2022-09-24T22:20:43.068Z,4.40
2022-09-24T22:23:10.227Z,4.05
2022-09-24T22:25:36.838Z,4.43
2022-09-24T22:28:03.639Z,4.00
2022-09-24T22:30:31.313Z,4.15
2022-09-24T22:32:57.966Z,3.92
2022-09-24T22:35:53.649Z,4.50
2022-09-24T22:38:20.067Z,4.20
2022-09-24T22:40:46.645Z,3.75
2022-09-24T22:43:13.126Z,4.63
2022-09-24T22:45:39.672Z,4.38
2022-09-24T22:48:06.088Z,4.60
2022-09-24T22:50:32.485Z,4.40
2022-09-24T22:52:58.947Z,4.32
2022-09-24T22:55:25.385Z,4.18
2022-09-24T22:57:51.791Z,4.15
2022-09-24T23:00:18.938Z,4.13
2022-09-24T23:02:45.659Z,3.70
2022-09-24T23:05:13.579Z,4.63
2022-09-24T23:07:40.251Z,4.50
2022-09-24T23:10:07.843Z,4.00
2022-09-24T23:12:34.435Z,3.72
2022-09-24T23:15:00.922Z,4.35
2022-09-24T23:17:27.838Z,4.25
2022-09-24T23:19:54.448Z,4.75
2022-09-24T23:22:21.718Z,4.22
2022-09-24T23:24:49.339Z,4.10
2022-09-24T23:27:16.721Z,4.28
2022-09-24T23:29:43.672Z,4.47
2022-09-24T23:32:10.513Z,4.40
2022-09-24T23:34:37.004Z,4.20
2022-09-24T23:37:03.422Z,4.53
2022-09-24T23:39:29.823Z,3.92
2022-09-24T23:41:56.248Z,4.55
2022-09-24T23:44:22.694Z,3.92
2022-09-24T23:46:49.159Z,4.43
2022-09-24T23:49:15.961Z,4.47
2022-09-24T23:51:42.376Z,3.75
2022-09-24T23:54:08.814Z,4.07
2022-09-24T23:56:35.263Z,4.60
2022-09-24T23:59:01.721Z,4.70
